Le Commodore — FPNE — position and weather

sailwx.info

Track history (hours):
 
Tides and Currents Weather Stations Pressure Air Temp Water Temp Dewpoint Dewpoint Depression Visibility Wind Speed Wind Dir Waves Ship Positions

Le Commodore

Last reported at 2017-Nov-17 15:50 UTC. Time now 2017-Nov-22 22:11 UTC.
Position N 47°47' W 004°17'.

Length 15 m.

Type: Other ship. MMSI: 228893000.

Date/timePositionNaut miles runAvg speedWind from/ knotsBaromVisibWave heightAir tempDewpointWater temp
2017-Nov-17 15:50N 47°47' W 004°17'3 9.1
2017-Nov-17 15:29N 47°45' W 004°20'4 9.0
2017-Nov-17 14:59N 47°41' W 004°23'24 4.6
2017-Nov-17 09:45N 47°22' W 004°44'1 1.8
2017-Nov-17 09:25N 47°22' W 004°44'2 3.1
2017-Nov-17 08:45N 47°24' W 004°43'1 3.1
2017-Nov-17 08:17N 47°26' W 004°43'3 3.3
2017-Nov-17 07:21N 47°28' W 004°41'2 3.5
2017-Nov-17 06:54N 47°30' W 004°39'8 6.4
2017-Nov-17 05:38N 47°36' W 004°32'1 9.5
2017-Nov-17 05:29N 47°37' W 004°30'6 9.3
2017-Nov-17 04:53N 47°41' W 004°25'4 9.4
2017-Nov-17 04:29N 47°44' W 004°21'5 0.4
2017-Nov-16 16:33N 47°48' W 004°17'1 1.6
2017-Nov-16 16:14N 47°47' W 004°17'2 9.5
2017-Nov-16 15:58N 47°45' W 004°20'5 9.5
2017-Nov-16 15:28N 47°42' W 004°24'14 4.6
2017-Nov-16 12:23N 47°31' W 004°38'5 3.3
2017-Nov-16 10:54N 47°27' W 004°41'4 3.6
2017-Nov-16 09:40N 47°23' W 004°44'0 0.7
2017-Nov-16 09:28N 47°23' W 004°43'2 2.9
2017-Nov-16 08:56N 47°24' W 004°43'2 3.0
2017-Nov-16 08:12N 47°26' W 004°42'1 3.1
2017-Nov-16 08:00N 47°27' W 004°42'2 3.2
2017-Nov-16 07:26N 47°29' W 004°42'5 3.9
2017-Nov-16 06:11N 47°32' W 004°37'3 9.4
2017-Nov-16 05:53N 47°34' W 004°34'4 9.3
2017-Nov-16 05:29N 47°37' W 004°30'5 9.3
2017-Nov-16 04:55N 47°41' W 004°25'4 9.3
2017-Nov-16 04:30N 47°44' W 004°21'5 6.4
2017-Nov-16 03:45N 47°48' W 004°17'0 0.0
2017-Nov-16 03:30N 47°48' W 004°17'0 0.0
2017-Nov-16 02:53N 47°48' W 004°17'0 0.0
2017-Nov-16 01:34N 47°48' W 004°17'0 0.0
2017-Nov-15 23:04N 47°48' W 004°17'0 0.0
2017-Nov-15 23:00N 47°48' W 004°17'1 0.1
2017-Nov-15 15:55N 47°47' W 004°16'16 6.3
2017-Nov-15 13:24N 47°35' W 003°60'3 3.4
2017-Nov-15 12:29N 47°34' W 003°56'3 4.2
2017-Nov-15 11:51N 47°32' W 003°53'2 3.2
2017-Nov-15 11:20N 47°33' W 003°50'1 3.1
2017-Nov-15 10:59N 47°33' W 003°49'2 3.2
2017-Nov-15 10:30N 47°33' W 003°47'2 3.4
2017-Nov-15 10:01N 47°34' W 003°45'1 2.5
2017-Nov-15 09:30N 47°33' W 003°45'2 3.4
2017-Nov-15 09:01N 47°32' W 003°47'2 3.4
2017-Nov-15 08:22N 47°31' W 003°49'1 3.4
2017-Nov-15 08:00N 47°32' W 003°51'2 3.2
2017-Nov-15 07:17N 47°32' W 003°54'8 6.9
2017-Nov-15 06:08N 47°37' W 004°03'3 9.5
2017-Nov-15 05:51N 47°39' W 004°06'5 9.5
2017-Nov-15 05:21N 47°42' W 004°12'3 9.2
2017-Nov-15 05:00N 47°44' W 004°16'4 7.5
2017-Nov-15 04:30N 47°48' W 004°17'2 0.2
2017-Nov-14 16:09N 47°46' W 004°17'19 3.4
2017-Nov-14 10:31N 47°33' W 003°56'1 3.3
2017-Nov-14 10:17N 47°33' W 003°55'1 3.2
2017-Nov-14 09:58N 47°32' W 003°54'1 2.5
2017-Nov-14 09:30N 47°33' W 003°52'2 3.0
2017-Nov-14 08:56N 47°33' W 003°55'1 2.5
2017-Nov-14 08:23N 47°34' W 003°56'1 1.6
2017-Nov-14 07:52N 47°34' W 003°56'15 5.9
2017-Nov-14 05:15N 47°43' W 004°14'2 8.5
2017-Nov-14 05:00N 47°45' W 004°16'  
2017-Nov-10 15:58N 47°47' W 004°17'4 9.0
2017-Nov-10 15:30N 47°44' W 004°21'6 6.7
2017-Nov-10 14:41N 47°39' W 004°25'2 2.9
2017-Nov-10 14:06N 47°39' W 004°28'0 3.5
2017-Nov-10 13:58N 47°39' W 004°28'2 3.5
2017-Nov-10 13:26N 47°39' W 004°31'3 3.7
2017-Nov-10 12:42N 47°39' W 004°35'1 2.8
2017-Nov-10 12:13N 47°39' W 004°37'1 3.6
2017-Nov-10 12:00N 47°40' W 004°38'2 3.7
2017-Nov-10 11:30N 47°40' W 004°41'0 0.0
2017-Nov-10 07:50N 47°40' W 004°41'1 2.8
2017-Nov-10 07:29N 47°40' W 004°40'3 3.9
2017-Nov-10 06:40N 47°40' W 004°35'1 8.2
2017-Nov-10 06:29N 47°41' W 004°33'4 8.1
2017-Nov-10 05:57N 47°43' W 004°27'4 8.1
2017-Nov-10 05:31N 47°45' W 004°23'4 8.1
2017-Nov-10 05:00N 47°47' W 004°18'0 0.0
2017-Nov-09 16:25N 47°47' W 004°17'4 8.8
2017-Nov-09 16:00N 47°44' W 004°21'7 8.2
2017-Nov-09 15:13N 47°39' W 004°27'3 3.3
2017-Nov-09 14:25N 47°38' W 004°30'2 3.5
2017-Nov-09 13:53N 47°39' W 004°33'4 3.4
2017-Nov-09 12:50N 47°40' W 004°38'1 2.1
2017-Nov-09 12:21N 47°40' W 004°40'2 3.5
2017-Nov-09 11:46N 47°41' W 004°42'2 3.4
2017-Nov-09 11:02N 47°40' W 004°46'6 1.3
2017-Nov-09 06:27N 47°42' W 004°38'5 8.8
2017-Nov-09 05:56N 47°43' W 004°31'4 9.0
2017-Nov-09 05:29N 47°45' W 004°26'4 8.7
2017-Nov-09 04:59N 47°46' W 004°20'2 0.1
2017-Nov-08 16:13N 47°47' W 004°18'4 8.4
2017-Nov-08 15:43N 47°43' W 004°18'2 6.0
2017-Nov-08 15:20N 47°41' W 004°19'8 1.1
2017-Nov-08 07:37N 47°33' W 004°18'3 3.6
2017-Nov-08 06:46N 47°36' W 004°18'3 6.1
2017-Nov-08 06:18N 47°38' W 004°18'3 9.1
2017-Nov-08 06:00N 47°41' W 004°18'5 9.2
2017-Nov-08 05:29N 47°46' W 004°18'1 0.1
2017-Nov-07 16:12N 47°47' W 004°17'2 8.0
2017-Nov-07 15:59N 47°46' W 004°18'  
Track history (hours):
 
Tides and Currents Weather Stations Pressure Air Temp Water Temp Dewpoint Dewpoint Depression Visibility Wind Speed Wind Dir Waves Ship Positions

Le Commodore

Last reported at 2017-Nov-17 15:50 UTC. Time now 2017-Nov-22 22:11 UTC.
Position N 47°47' W 004°17'.

Length 15 m.

Type: Other ship. MMSI: 228893000.

Date/timePositionNaut miles runAvg speedWind from/ knotsBaromVisibWave heightAir tempDewpointWater temp
2017-Nov-17 15:50N 47°47' W 004°17'3 9.1
2017-Nov-17 15:29N 47°45' W 004°20'4 9.0
2017-Nov-17 14:59N 47°41' W 004°23'24 4.6
2017-Nov-17 09:45N 47°22' W 004°44'1 1.8
2017-Nov-17 09:25N 47°22' W 004°44'2 3.1
2017-Nov-17 08:45N 47°24' W 004°43'1 3.1
2017-Nov-17 08:17N 47°26' W 004°43'3 3.3
2017-Nov-17 07:21N 47°28' W 004°41'2 3.5
2017-Nov-17 06:54N 47°30' W 004°39'8 6.4
2017-Nov-17 05:38N 47°36' W 004°32'1 9.5
2017-Nov-17 05:29N 47°37' W 004°30'6 9.3
2017-Nov-17 04:53N 47°41' W 004°25'4 9.4
2017-Nov-17 04:29N 47°44' W 004°21'5 0.4
2017-Nov-16 16:33N 47°48' W 004°17'1 1.6
2017-Nov-16 16:14N 47°47' W 004°17'2 9.5
2017-Nov-16 15:58N 47°45' W 004°20'5 9.5
2017-Nov-16 15:28N 47°42' W 004°24'14 4.6
2017-Nov-16 12:23N 47°31' W 004°38'5 3.3
2017-Nov-16 10:54N 47°27' W 004°41'4 3.6
2017-Nov-16 09:40N 47°23' W 004°44'0 0.7
2017-Nov-16 09:28N 47°23' W 004°43'2 2.9
2017-Nov-16 08:56N 47°24' W 004°43'2 3.0
2017-Nov-16 08:12N 47°26' W 004°42'1 3.1
2017-Nov-16 08:00N 47°27' W 004°42'2 3.2
2017-Nov-16 07:26N 47°29' W 004°42'5 3.9
2017-Nov-16 06:11N 47°32' W 004°37'3 9.4
2017-Nov-16 05:53N 47°34' W 004°34'4 9.3
2017-Nov-16 05:29N 47°37' W 004°30'5 9.3
2017-Nov-16 04:55N 47°41' W 004°25'4 9.3
2017-Nov-16 04:30N 47°44' W 004°21'5 6.4
2017-Nov-16 03:45N 47°48' W 004°17'0 0.0
2017-Nov-16 03:30N 47°48' W 004°17'0 0.0
2017-Nov-16 02:53N 47°48' W 004°17'0 0.0
2017-Nov-16 01:34N 47°48' W 004°17'0 0.0
2017-Nov-15 23:04N 47°48' W 004°17'0 0.0
2017-Nov-15 23:00N 47°48' W 004°17'1 0.1
2017-Nov-15 15:55N 47°47' W 004°16'16 6.3
2017-Nov-15 13:24N 47°35' W 003°60'3 3.4
2017-Nov-15 12:29N 47°34' W 003°56'3 4.2
2017-Nov-15 11:51N 47°32' W 003°53'2 3.2
2017-Nov-15 11:20N 47°33' W 003°50'1 3.1
2017-Nov-15 10:59N 47°33' W 003°49'2 3.2
2017-Nov-15 10:30N 47°33' W 003°47'2 3.4
2017-Nov-15 10:01N 47°34' W 003°45'1 2.5
2017-Nov-15 09:30N 47°33' W 003°45'2 3.4
2017-Nov-15 09:01N 47°32' W 003°47'2 3.4
2017-Nov-15 08:22N 47°31' W 003°49'1 3.4
2017-Nov-15 08:00N 47°32' W 003°51'2 3.2
2017-Nov-15 07:17N 47°32' W 003°54'8 6.9
2017-Nov-15 06:08N 47°37' W 004°03'3 9.5
2017-Nov-15 05:51N 47°39' W 004°06'5 9.5
2017-Nov-15 05:21N 47°42' W 004°12'3 9.2
2017-Nov-15 05:00N 47°44' W 004°16'4 7.5
2017-Nov-15 04:30N 47°48' W 004°17'2 0.2
2017-Nov-14 16:09N 47°46' W 004°17'19 3.4
2017-Nov-14 10:31N 47°33' W 003°56'1 3.3
2017-Nov-14 10:17N 47°33' W 003°55'1 3.2
2017-Nov-14 09:58N 47°32' W 003°54'1 2.5
2017-Nov-14 09:30N 47°33' W 003°52'2 3.0
2017-Nov-14 08:56N 47°33' W 003°55'1 2.5
2017-Nov-14 08:23N 47°34' W 003°56'1 1.6
2017-Nov-14 07:52N 47°34' W 003°56'15 5.9
2017-Nov-14 05:15N 47°43' W 004°14'2 8.5
2017-Nov-14 05:00N 47°45' W 004°16'  
2017-Nov-10 15:58N 47°47' W 004°17'4 9.0
2017-Nov-10 15:30N 47°44' W 004°21'6 6.7
2017-Nov-10 14:41N 47°39' W 004°25'2 2.9
2017-Nov-10 14:06N 47°39' W 004°28'0 3.5
2017-Nov-10 13:58N 47°39' W 004°28'2 3.5
2017-Nov-10 13:26N 47°39' W 004°31'3 3.7
2017-Nov-10 12:42N 47°39' W 004°35'1 2.8
2017-Nov-10 12:13N 47°39' W 004°37'1 3.6
2017-Nov-10 12:00N 47°40' W 004°38'2 3.7
2017-Nov-10 11:30N 47°40' W 004°41'0 0.0
2017-Nov-10 07:50N 47°40' W 004°41'1 2.8
2017-Nov-10 07:29N 47°40' W 004°40'3 3.9
2017-Nov-10 06:40N 47°40' W 004°35'1 8.2
2017-Nov-10 06:29N 47°41' W 004°33'4 8.1
2017-Nov-10 05:57N 47°43' W 004°27'4 8.1
2017-Nov-10 05:31N 47°45' W 004°23'4 8.1
2017-Nov-10 05:00N 47°47' W 004°18'0 0.0
2017-Nov-09 16:25N 47°47' W 004°17'4 8.8
2017-Nov-09 16:00N 47°44' W 004°21'7 8.2
2017-Nov-09 15:13N 47°39' W 004°27'3 3.3
2017-Nov-09 14:25N 47°38' W 004°30'2 3.5
2017-Nov-09 13:53N 47°39' W 004°33'4 3.4
2017-Nov-09 12:50N 47°40' W 004°38'1 2.1
2017-Nov-09 12:21N 47°40' W 004°40'2 3.5
2017-Nov-09 11:46N 47°41' W 004°42'2 3.4
2017-Nov-09 11:02N 47°40' W 004°46'6 1.3
2017-Nov-09 06:27N 47°42' W 004°38'5 8.8
2017-Nov-09 05:56N 47°43' W 004°31'4 9.0
2017-Nov-09 05:29N 47°45' W 004°26'4 8.7
2017-Nov-09 04:59N 47°46' W 004°20'2 0.1
2017-Nov-08 16:13N 47°47' W 004°18'4 8.4
2017-Nov-08 15:43N 47°43' W 004°18'2 6.0
2017-Nov-08 15:20N 47°41' W 004°19'8 1.1
2017-Nov-08 07:37N 47°33' W 004°18'3 3.6
2017-Nov-08 06:46N 47°36' W 004°18'3 6.1
2017-Nov-08 06:18N 47°38' W 004°18'3 9.1
2017-Nov-08 06:00N 47°41' W 004°18'5 9.2
2017-Nov-08 05:29N 47°46' W 004°18'1 0.1
2017-Nov-07 16:12N 47°47' W 004°17'2 8.0
2017-Nov-07 15:59N 47°46' W 004°18'  

Dump ship's entire track history